Relevés horaires Bouveret (Suisse)


Relevés horaires à Bouveret - Mardi 06 Févr. 2018
Heure UTC1 Température [°C] Vent [km/h] Hum. [%] Pres.4 [hPa] Visi. [Km] Nébu. [octa] Préc.5 [mm] Cond.
2m. Res. Ros. Dir.2 Vit. Moy. Raf.3
23:00 3.6 1.2 1.5 ONO 9.3 -- 13.0 86 1010.3(0.4/3h) -- -- -- --
22:00 1.9 1.9 0.2 SSE 1.9 -- 5.6 88 1010.4(0.4/3h) -- -- -- --
21:00 2.1 2.1 0.3 S 3.7 -- 9.3 88 1010.2(0.4/3h) -- -- -- --
20:00 3.0 3.0 1.0 SO 3.7 -- 5.6 87 1010(0.6/3h) -- -- -- --
19:00 2.3 2.3 0.5 SO 1.9 -- 7.4 88 1009.9(0.3/3h) -- -- -- --
18:00 2.4 0.9 -0.4 SSE 5.6 -- 14.8 82 1009.7(0.0/3h) -- -- -- --
17:00 3.0 3.0 -0.3 SSE 1.9 -- 5.6 79 1009.4(-0.6/3h) -- -- -- --
16:00 3.7 3.7 0.1 O 3.7 -- 9.3 77 1009.4(-1.0/3h) -- -- -- --
15:00 3.6 2.3 0.3 ONO 5.6 -- 14.8 79 1009.5(-1.7/3h) -- -- -- --
14:00 3.3 0.8 0.2 ONO 9.3 -- 14.8 80 1010(-2.0/3h) -- -- -- --
13:00 3.2 1.2 -0.2 ONO 7.4 -- 11.1 78 1010.5(-1.8/3h) -- -- -- --
12:00 3.0 1 -0.6 ONO 7.4 -- 16.7 77 1011.4(-1.3/3h) -- -- -- --
11:00 2.8 -0.2 -0.4 ONO 11.1 -- 16.7 79 1012.2(-1.0/3h) -- -- -- --
10:00 2.6 -0 -0.3 ONO 9.3 -- 14.8 81 1012.5(-1.0/3h) -- -- -- --
09:00 2.3 2.3 -0.3 E 1.9 -- 14.8 83 1012.9(-1.3/3h) -- -- -- --
08:00 1.9 1.9 -0.6 ESE 1.9 -- 7.4 83 1013.4(-1.4/3h) -- -- -- --
07:00 1.1 -0.6 -0.6 S 5.6 -- 14.8 88 1013.8(-1.2/3h) -- -- -- --
06:00 0.6 -1.8 -0.9 SE 7.4 -- 18.5 90 1014.5(-0.4/3h) -- -- -- --
05:00 2.6 1.1 -0.5 N 5.6 -- 14.8 80 1014.7(-0.4/3h) -- -- -- --
04:00 2.6 0.5 -0.6 N 7.4 -- 18.5 79 1014.8(-0.8/3h) -- -- -- --
03:00 2.7 -0.7 -0.4 N 13.0 -- 18.5 80 1014.6(-1.5/3h) -- -- -- --
02:00 2.7 -0.7 -0.3 N 13.0 -- 18.5 81 1015.1(-1.3/3h) -- -- -- --
01:00 3.2 1.8 -- NNO 5.6 -- 14.8 -- 1015.5(-1.2/3h) -- -- -- --
00:00 3.4 0.5 -0.2 NNO 11.1 -- 14.8 77 1016(-1.2/3h) -- -- -- --

1 Coordinated Universal Time. Actuellement il est 11:00 locale et 09:00 UTC.

2 Le vent souffle depuis la direction indiquée vers la direction oposée.

3 Les rafales max. sont disponible 40 min après l'heure du relevé.

4 Pour les stations d'altitude (plus de 600m) le géopotentiel du niveau le plus proche de la pression obligatoire est indiqué.

5 Les stations disposant d'un diffuseur peuvent indiquer "trace". Cela signifie que des précipitations ont touchés le sol mais que la quantité est inférieure à 0.1 mm.

Copyright

Les données affichées sur cette page sont la propriété exclusive de Météo Suisse.

Récapitulatif de la journée
Température [°C] Vent [km/h] Ensoleillement4 [h] Precipitations totale5 [mm] Pression [Hpa]
Min1 Max.2 Moy.3 Max. Min Max.
0.9 3.8 0 18.5 0 h 0 min 0 1009.4 1016.0

1 Température minimale relevée entre 18:00 UTC la veille et 18:00 UTC le jour donné.

2 Température maximale relevée entre 06:00 UTC le jour donné et 06:00 UTC le lendemain.

3 Vent moyen de la journée basé sur les relevés horaires.

4 Ensoleillement en heures relevé entre 06:00 UTC la veille et 06:00 UTC le jour donné.

5 Précipitations totales tombées entre 06:00 UTC la jour donné et 06:00 UTC le lendemain.

Graphiques horaires